sensor_id;sensor_type;location;lat;lon;timestamp;P1;durP1;ratioP1;P2;durP2;ratioP2
22248;SDS011;67538;52.180;5.646;2023-06-14T00:01:48;7.45;;;3.35;;
22248;SDS011;67538;52.180;5.646;2023-06-14T00:04:15;15.52;;;3.78;;
22248;SDS011;67538;52.180;5.646;2023-06-14T00:06:43;10.73;;;3.45;;
22248;SDS011;67538;52.180;5.646;2023-06-14T00:09:11;9.90;;;3.38;;
22248;SDS011;67538;52.180;5.646;2023-06-14T00:11:39;12.25;;;3.20;;
22248;SDS011;67538;52.180;5.646;2023-06-14T00:14:07;11.27;;;3.42;;
22248;SDS011;67538;52.180;5.646;2023-06-14T00:16:34;14.43;;;3.30;;
22248;SDS011;67538;52.180;5.646;2023-06-14T00:19:02;8.35;;;3.38;;
22248;SDS011;67538;52.180;5.646;2023-06-14T00:21:29;10.90;;;3.10;;
22248;SDS011;67538;52.180;5.646;2023-06-14T00:23:57;15.15;;;3.60;;
22248;SDS011;67538;52.180;5.646;2023-06-14T00:26:25;7.57;;;3.00;;
22248;SDS011;67538;52.180;5.646;2023-06-14T00:28:52;7.20;;;3.28;;
22248;SDS011;67538;52.180;5.646;2023-06-14T00:31:20;55.42;;;5.38;;
22248;SDS011;67538;52.180;5.646;2023-06-14T00:33:48;11.68;;;3.63;;
22248;SDS011;67538;52.180;5.646;2023-06-14T00:36:15;10.73;;;3.33;;
22248;SDS011;67538;52.180;5.646;2023-06-14T00:38:42;8.45;;;3.28;;
22248;SDS011;67538;52.180;5.646;2023-06-14T00:41:09;10.70;;;3.28;;
22248;SDS011;67538;52.180;5.646;2023-06-14T00:43:36;10.10;;;3.30;;
22248;SDS011;67538;52.180;5.646;2023-06-14T00:46:03;11.57;;;3.22;;
22248;SDS011;67538;52.180;5.646;2023-06-14T00:48:31;9.82;;;3.22;;
22248;SDS011;67538;52.180;5.646;2023-06-14T00:51:00;14.15;;;3.20;;
22248;SDS011;67538;52.180;5.646;2023-06-14T00:53:29;7.97;;;3.35;;
22248;SDS011;67538;52.180;5.646;2023-06-14T00:55:59;7.93;;;3.47;;
22248;SDS011;67538;52.180;5.646;2023-06-14T00:58:26;8.40;;;3.33;;
22248;SDS011;67538;52.180;5.646;2023-06-14T01:00:54;19.60;;;3.35;;
22248;SDS011;67538;52.180;5.646;2023-06-14T01:03:23;13.80;;;3.40;;
22248;SDS011;67538;52.180;5.646;2023-06-14T01:05:53;9.60;;;3.30;;
22248;SDS011;67538;52.180;5.646;2023-06-14T01:08:28;8.52;;;3.28;;
22248;SDS011;67538;52.180;5.646;2023-06-14T01:11:12;11.35;;;2.90;;
22248;SDS011;67538;52.180;5.646;2023-06-14T01:13:43;8.90;;;3.20;;
22248;SDS011;67538;52.180;5.646;2023-06-14T01:16:12;12.15;;;3.38;;
22248;SDS011;67538;52.180;5.646;2023-06-14T01:18:41;10.65;;;3.10;;
22248;SDS011;67538;52.180;5.646;2023-06-14T01:21:22;20.70;;;3.67;;
22248;SDS011;67538;52.180;5.646;2023-06-14T01:23:53;9.70;;;3.10;;
22248;SDS011;67538;52.180;5.646;2023-06-14T01:26:21;15.73;;;3.72;;
22248;SDS011;67538;52.180;5.646;2023-06-14T01:28:49;8.32;;;3.25;;
22248;SDS011;67538;52.180;5.646;2023-06-14T01:31:18;10.50;;;3.70;;
22248;SDS011;67538;52.180;5.646;2023-06-14T01:33:47;8.68;;;3.38;;
22248;SDS011;67538;52.180;5.646;2023-06-14T01:36:16;8.57;;;3.30;;
22248;SDS011;67538;52.180;5.646;2023-06-14T01:38:44;8.82;;;3.45;;
22248;SDS011;67538;52.180;5.646;2023-06-14T01:41:14;13.57;;;3.80;;
22248;SDS011;67538;52.180;5.646;2023-06-14T01:43:42;12.38;;;3.50;;
22248;SDS011;67538;52.180;5.646;2023-06-14T01:46:11;11.10;;;3.50;;
22248;SDS011;67538;52.180;5.646;2023-06-14T01:48:40;11.35;;;3.50;;
22248;SDS011;67538;52.180;5.646;2023-06-14T01:51:09;8.52;;;3.50;;
22248;SDS011;67538;52.180;5.646;2023-06-14T01:53:36;9.32;;;3.38;;
22248;SDS011;67538;52.180;5.646;2023-06-14T01:56:03;8.68;;;3.30;;
22248;SDS011;67538;52.180;5.646;2023-06-14T01:58:31;10.25;;;3.47;;
22248;SDS011;67538;52.180;5.646;2023-06-14T02:00:58;14.38;;;3.60;;
22248;SDS011;67538;52.180;5.646;2023-06-14T02:03:26;12.05;;;3.42;;
22248;SDS011;67538;52.180;5.646;2023-06-14T02:05:53;10.77;;;3.40;;
22248;SDS011;67538;52.180;5.646;2023-06-14T02:08:20;9.90;;;3.60;;
22248;SDS011;67538;52.180;5.646;2023-06-14T02:10:47;12.77;;;3.63;;
22248;SDS011;67538;52.180;5.646;2023-06-14T02:13:14;10.07;;;3.40;;
22248;SDS011;67538;52.180;5.646;2023-06-14T02:15:43;8.15;;;3.10;;
22248;SDS011;67538;52.180;5.646;2023-06-14T02:18:10;9.77;;;3.45;;
22248;SDS011;67538;52.180;5.646;2023-06-14T02:20:38;11.77;;;3.38;;
22248;SDS011;67538;52.180;5.646;2023-06-14T02:23:05;10.45;;;3.53;;
22248;SDS011;67538;52.180;5.646;2023-06-14T02:25:33;11.10;;;3.40;;
22248;SDS011;67538;52.180;5.646;2023-06-14T02:28:00;10.55;;;3.13;;
22248;SDS011;67538;52.180;5.646;2023-06-14T02:30:27;11.20;;;3.08;;
22248;SDS011;67538;52.180;5.646;2023-06-14T02:32:57;10.00;;;3.40;;
22248;SDS011;67538;52.180;5.646;2023-06-14T02:35:25;6.63;;;2.97;;
22248;SDS011;67538;52.180;5.646;2023-06-14T02:37:53;7.18;;;3.20;;
22248;SDS011;67538;52.180;5.646;2023-06-14T02:40:20;10.70;;;3.33;;
22248;SDS011;67538;52.180;5.646;2023-06-14T02:42:48;14.00;;;3.40;;
22248;SDS011;67538;52.180;5.646;2023-06-14T02:45:15;8.55;;;3.22;;
22248;SDS011;67538;52.180;5.646;2023-06-14T02:47:42;7.37;;;3.10;;
22248;SDS011;67538;52.180;5.646;2023-06-14T02:50:10;16.33;;;3.63;;
22248;SDS011;67538;52.180;5.646;2023-06-14T02:52:37;11.80;;;3.55;;
22248;SDS011;67538;52.180;5.646;2023-06-14T02:55:07;10.10;;;3.13;;
22248;SDS011;67538;52.180;5.646;2023-06-14T02:57:34;12.52;;;3.53;;
22248;SDS011;67538;52.180;5.646;2023-06-14T03:00:02;9.30;;;3.30;;
22248;SDS011;67538;52.180;5.646;2023-06-14T03:02:29;14.98;;;3.10;;
22248;SDS011;67538;52.180;5.646;2023-06-14T03:04:56;10.27;;;3.70;;
22248;SDS011;67538;52.180;5.646;2023-06-14T03:07:27;11.93;;;3.40;;
22248;SDS011;67538;52.180;5.646;2023-06-14T03:09:55;11.48;;;3.42;;
22248;SDS011;67538;52.180;5.646;2023-06-14T03:12:22;11.77;;;3.50;;
22248;SDS011;67538;52.180;5.646;2023-06-14T03:14:50;9.90;;;3.40;;
22248;SDS011;67538;52.180;5.646;2023-06-14T03:17:17;10.47;;;3.60;;
22248;SDS011;67538;52.180;5.646;2023-06-14T03:19:44;10.85;;;3.40;;
22248;SDS011;67538;52.180;5.646;2023-06-14T03:22:11;14.85;;;3.75;;
22248;SDS011;67538;52.180;5.646;2023-06-14T03:24:40;11.23;;;3.50;;
22248;SDS011;67538;52.180;5.646;2023-06-14T03:27:08;12.73;;;3.75;;
22248;SDS011;67538;52.180;5.646;2023-06-14T03:29:37;13.10;;;4.10;;
22248;SDS011;67538;52.180;5.646;2023-06-14T03:32:05;10.40;;;4.37;;
22248;SDS011;67538;52.180;5.646;2023-06-14T03:34:32;9.45;;;3.95;;
22248;SDS011;67538;52.180;5.646;2023-06-14T03:36:59;10.27;;;4.40;;
22248;SDS011;67538;52.180;5.646;2023-06-14T03:39:26;9.77;;;4.00;;
22248;SDS011;67538;52.180;5.646;2023-06-14T03:41:55;11.02;;;3.85;;
22248;SDS011;67538;52.180;5.646;2023-06-14T03:44:22;17.52;;;4.20;;
22248;SDS011;67538;52.180;5.646;2023-06-14T03:46:49;11.90;;;3.80;;
22248;SDS011;67538;52.180;5.646;2023-06-14T03:49:16;13.48;;;3.80;;
22248;SDS011;67538;52.180;5.646;2023-06-14T03:51:43;12.13;;;3.63;;
22248;SDS011;67538;52.180;5.646;2023-06-14T03:54:16;12.38;;;3.80;;
22248;SDS011;67538;52.180;5.646;2023-06-14T03:56:43;14.80;;;3.55;;
22248;SDS011;67538;52.180;5.646;2023-06-14T03:59:12;9.50;;;3.53;;
22248;SDS011;67538;52.180;5.646;2023-06-14T04:01:39;11.93;;;3.78;;
22248;SDS011;67538;52.180;5.646;2023-06-14T04:04:11;18.27;;;3.83;;
22248;SDS011;67538;52.180;5.646;2023-06-14T04:06:38;13.60;;;3.90;;
22248;SDS011;67538;52.180;5.646;2023-06-14T04:09:07;15.30;;;4.00;;
22248;SDS011;67538;52.180;5.646;2023-06-14T04:11:34;14.23;;;3.70;;
22248;SDS011;67538;52.180;5.646;2023-06-14T04:14:02;13.60;;;4.07;;
22248;SDS011;67538;52.180;5.646;2023-06-14T04:16:30;14.70;;;3.75;;
22248;SDS011;67538;52.180;5.646;2023-06-14T04:18:57;10.93;;;3.75;;
22248;SDS011;67538;52.180;5.646;2023-06-14T04:21:24;10.00;;;3.63;;
22248;SDS011;67538;52.180;5.646;2023-06-14T04:23:53;8.75;;;3.45;;
22248;SDS011;67538;52.180;5.646;2023-06-14T04:26:21;8.55;;;3.55;;
22248;SDS011;67538;52.180;5.646;2023-06-14T04:28:54;14.52;;;3.65;;
22248;SDS011;67538;52.180;5.646;2023-06-14T04:31:26;9.93;;;3.60;;
22248;SDS011;67538;52.180;5.646;2023-06-14T04:33:55;11.60;;;3.72;;
22248;SDS011;67538;52.180;5.646;2023-06-14T04:36:24;7.55;;;3.20;;
22248;SDS011;67538;52.180;5.646;2023-06-14T04:38:53;14.43;;;3.50;;
22248;SDS011;67538;52.180;5.646;2023-06-14T04:41:20;13.35;;;3.40;;
22248;SDS011;67538;52.180;5.646;2023-06-14T04:43:48;10.85;;;3.58;;
22248;SDS011;67538;52.180;5.646;2023-06-14T04:46:15;8.98;;;3.40;;
22248;SDS011;67538;52.180;5.646;2023-06-14T04:48:44;10.18;;;3.70;;
22248;SDS011;67538;52.180;5.646;2023-06-14T04:51:12;9.23;;;3.30;;
22248;SDS011;67538;52.180;5.646;2023-06-14T04:53:40;19.30;;;3.90;;
22248;SDS011;67538;52.180;5.646;2023-06-14T04:56:09;9.88;;;3.08;;
22248;SDS011;67538;52.180;5.646;2023-06-14T04:58:36;9.00;;;3.15;;
22248;SDS011;67538;52.180;5.646;2023-06-14T05:01:03;10.23;;;3.20;;
22248;SDS011;67538;52.180;5.646;2023-06-14T05:03:30;7.93;;;3.17;;
22248;SDS011;67538;52.180;5.646;2023-06-14T05:05:59;8.43;;;3.20;;
22248;SDS011;67538;52.180;5.646;2023-06-14T05:08:28;8.00;;;2.92;;
22248;SDS011;67538;52.180;5.646;2023-06-14T05:10:55;7.97;;;2.90;;
22248;SDS011;67538;52.180;5.646;2023-06-14T05:13:22;12.30;;;2.95;;
22248;SDS011;67538;52.180;5.646;2023-06-14T05:15:49;11.10;;;2.87;;
22248;SDS011;67538;52.180;5.646;2023-06-14T05:18:16;16.35;;;3.70;;
22248;SDS011;67538;52.180;5.646;2023-06-14T05:20:44;8.60;;;3.20;;
22248;SDS011;67538;52.180;5.646;2023-06-14T05:23:11;9.57;;;3.05;;
22248;SDS011;67538;52.180;5.646;2023-06-14T05:25:41;8.13;;;3.00;;
22248;SDS011;67538;52.180;5.646;2023-06-14T05:28:09;8.85;;;3.13;;
22248;SDS011;67538;52.180;5.646;2023-06-14T05:30:37;6.68;;;2.97;;
22248;SDS011;67538;52.180;5.646;2023-06-14T05:33:05;6.80;;;3.13;;
22248;SDS011;67538;52.180;5.646;2023-06-14T05:35:32;5.07;;;2.65;;
22248;SDS011;67538;52.180;5.646;2023-06-14T05:37:59;8.13;;;2.70;;
22248;SDS011;67538;52.180;5.646;2023-06-14T05:40:26;13.70;;;3.17;;
22248;SDS011;67538;52.180;5.646;2023-06-14T05:42:55;10.23;;;3.00;;
22248;SDS011;67538;52.180;5.646;2023-06-14T05:45:22;9.18;;;3.03;;
22248;SDS011;67538;52.180;5.646;2023-06-14T05:47:49;8.48;;;3.17;;
22248;SDS011;67538;52.180;5.646;2023-06-14T05:50:17;38.58;;;4.60;;
22248;SDS011;67538;52.180;5.646;2023-06-14T05:52:44;7.95;;;2.80;;
22248;SDS011;67538;52.180;5.646;2023-06-14T05:55:11;8.07;;;3.15;;
22248;SDS011;67538;52.180;5.646;2023-06-14T05:57:38;12.25;;;3.03;;
22248;SDS011;67538;52.180;5.646;2023-06-14T06:00:07;9.63;;;3.20;;
22248;SDS011;67538;52.180;5.646;2023-06-14T06:02:39;8.32;;;2.95;;
22248;SDS011;67538;52.180;5.646;2023-06-14T06:05:07;7.80;;;2.97;;
22248;SDS011;67538;52.180;5.646;2023-06-14T06:07:35;8.00;;;2.97;;
22248;SDS011;67538;52.180;5.646;2023-06-14T06:10:02;7.80;;;3.07;;
22248;SDS011;67538;52.180;5.646;2023-06-14T06:12:30;8.80;;;3.05;;
22248;SDS011;67538;52.180;5.646;2023-06-14T06:14:57;12.27;;;2.83;;
22248;SDS011;67538;52.180;5.646;2023-06-14T06:17:26;8.57;;;2.88;;
22248;SDS011;67538;52.180;5.646;2023-06-14T06:19:53;9.93;;;2.97;;
22248;SDS011;67538;52.180;5.646;2023-06-14T06:22:20;13.05;;;3.05;;
22248;SDS011;67538;52.180;5.646;2023-06-14T06:24:48;13.27;;;3.15;;
22248;SDS011;67538;52.180;5.646;2023-06-14T06:27:15;17.80;;;3.45;;
22248;SDS011;67538;52.180;5.646;2023-06-14T06:29:44;20.27;;;3.53;;
22248;SDS011;67538;52.180;5.646;2023-06-14T06:32:11;9.43;;;2.80;;
22248;SDS011;67538;52.180;5.646;2023-06-14T06:34:39;16.33;;;2.97;;
22248;SDS011;67538;52.180;5.646;2023-06-14T06:37:06;14.55;;;3.15;;
22248;SDS011;67538;52.180;5.646;2023-06-14T06:39:33;11.75;;;3.10;;
22248;SDS011;67538;52.180;5.646;2023-06-14T06:42:01;9.50;;;2.58;;
22248;SDS011;67538;52.180;5.646;2023-06-14T06:44:28;22.17;;;3.80;;
22248;SDS011;67538;52.180;5.646;2023-06-14T06:46:55;11.15;;;2.83;;
22248;SDS011;67538;52.180;5.646;2023-06-14T06:49:23;9.05;;;2.75;;
22248;SDS011;67538;52.180;5.646;2023-06-14T06:52:01;8.65;;;2.63;;
22248;SDS011;67538;52.180;5.646;2023-06-14T06:54:29;7.95;;;2.53;;
22248;SDS011;67538;52.180;5.646;2023-06-14T06:56:56;9.77;;;2.43;;
22248;SDS011;67538;52.180;5.646;2023-06-14T06:59:24;6.18;;;2.30;;
22248;SDS011;67538;52.180;5.646;2023-06-14T07:01:51;8.68;;;2.67;;
22248;SDS011;67538;52.180;5.646;2023-06-14T07:04:18;5.57;;;2.33;;
22248;SDS011;67538;52.180;5.646;2023-06-14T07:06:45;6.50;;;2.03;;
22248;SDS011;67538;52.180;5.646;2023-06-14T07:09:14;8.77;;;2.28;;
22248;SDS011;67538;52.180;5.646;2023-06-14T07:11:42;5.72;;;2.45;;
22248;SDS011;67538;52.180;5.646;2023-06-14T07:14:10;7.40;;;2.63;;
22248;SDS011;67538;52.180;5.646;2023-06-14T07:16:37;9.77;;;2.20;;
22248;SDS011;67538;52.180;5.646;2023-06-14T07:19:06;7.55;;;2.30;;
22248;SDS011;67538;52.180;5.646;2023-06-14T07:21:34;11.23;;;2.47;;
22248;SDS011;67538;52.180;5.646;2023-06-14T07:24:02;9.33;;;2.43;;
22248;SDS011;67538;52.180;5.646;2023-06-14T07:26:32;7.97;;;2.10;;
22248;SDS011;67538;52.180;5.646;2023-06-14T07:29:00;6.00;;;1.92;;
22248;SDS011;67538;52.180;5.646;2023-06-14T07:31:27;36.30;;;3.40;;
22248;SDS011;67538;52.180;5.646;2023-06-14T07:33:54;11.93;;;2.17;;
22248;SDS011;67538;52.180;5.646;2023-06-14T07:36:21;6.78;;;2.00;;
22248;SDS011;67538;52.180;5.646;2023-06-14T07:38:49;6.07;;;2.00;;
22248;SDS011;67538;52.180;5.646;2023-06-14T07:41:16;9.00;;;1.90;;
22248;SDS011;67538;52.180;5.646;2023-06-14T07:43:44;8.30;;;1.75;;
22248;SDS011;67538;52.180;5.646;2023-06-14T07:46:11;10.40;;;2.30;;
22248;SDS011;67538;52.180;5.646;2023-06-14T07:48:38;5.07;;;1.90;;
22248;SDS011;67538;52.180;5.646;2023-06-14T07:51:05;6.53;;;2.03;;
22248;SDS011;67538;52.180;5.646;2023-06-14T07:53:32;5.70;;;2.10;;
22248;SDS011;67538;52.180;5.646;2023-06-14T07:55:59;6.25;;;1.70;;
22248;SDS011;67538;52.180;5.646;2023-06-14T07:58:27;5.72;;;1.60;;
22248;SDS011;67538;52.180;5.646;2023-06-14T08:00:56;6.55;;;1.60;;
22248;SDS011;67538;52.180;5.646;2023-06-14T08:03:23;11.20;;;2.30;;
22248;SDS011;67538;52.180;5.646;2023-06-14T08:05:50;6.88;;;1.83;;
22248;SDS011;67538;52.180;5.646;2023-06-14T08:08:17;10.55;;;1.90;;
22248;SDS011;67538;52.180;5.646;2023-06-14T08:10:44;7.70;;;1.42;;
22248;SDS011;67538;52.180;5.646;2023-06-14T08:13:11;8.00;;;1.60;;
22248;SDS011;67538;52.180;5.646;2023-06-14T08:15:38;5.68;;;1.80;;
22248;SDS011;67538;52.180;5.646;2023-06-14T08:18:07;6.53;;;1.77;;
22248;SDS011;67538;52.180;5.646;2023-06-14T08:20:34;10.07;;;2.00;;
22248;SDS011;67538;52.180;5.646;2023-06-14T08:23:02;8.63;;;1.80;;
22248;SDS011;67538;52.180;5.646;2023-06-14T08:25:29;10.05;;;1.80;;
22248;SDS011;67538;52.180;5.646;2023-06-14T08:27:56;8.45;;;1.85;;
22248;SDS011;67538;52.180;5.646;2023-06-14T08:30:25;8.13;;;1.65;;
22248;SDS011;67538;52.180;5.646;2023-06-14T08:32:52;14.20;;;2.38;;
22248;SDS011;67538;52.180;5.646;2023-06-14T08:35:22;7.00;;;1.40;;
22248;SDS011;67538;52.180;5.646;2023-06-14T08:37:49;8.15;;;1.50;;
22248;SDS011;67538;52.180;5.646;2023-06-14T08:40:19;2.47;;;1.50;;
22248;SDS011;67538;52.180;5.646;2023-06-14T08:42:48;4.22;;;1.67;;
22248;SDS011;67538;52.180;5.646;2023-06-14T08:45:17;5.30;;;1.60;;
22248;SDS011;67538;52.180;5.646;2023-06-14T08:47:45;5.60;;;1.70;;
22248;SDS011;67538;52.180;5.646;2023-06-14T08:50:16;6.18;;;1.50;;
22248;SDS011;67538;52.180;5.646;2023-06-14T08:52:51;6.60;;;1.50;;
22248;SDS011;67538;52.180;5.646;2023-06-14T08:55:22;5.43;;;1.50;;
22248;SDS011;67538;52.180;5.646;2023-06-14T08:57:53;14.73;;;2.00;;
22248;SDS011;67538;52.180;5.646;2023-06-14T09:00:21;7.50;;;1.60;;
22248;SDS011;67538;52.180;5.646;2023-06-14T09:02:49;5.93;;;1.70;;
22248;SDS011;67538;52.180;5.646;2023-06-14T09:05:22;3.40;;;1.50;;
22248;SDS011;67538;52.180;5.646;2023-06-14T09:07:50;3.20;;;1.60;;
22248;SDS011;67538;52.180;5.646;2023-06-14T09:10:17;6.35;;;1.60;;
22248;SDS011;67538;52.180;5.646;2023-06-14T09:12:46;7.30;;;1.70;;
22248;SDS011;67538;52.180;5.646;2023-06-14T09:15:14;5.57;;;1.60;;
22248;SDS011;67538;52.180;5.646;2023-06-14T09:17:42;6.25;;;1.50;;
22248;SDS011;67538;52.180;5.646;2023-06-14T09:20:09;5.47;;;1.90;;
22248;SDS011;67538;52.180;5.646;2023-06-14T09:22:40;7.07;;;1.70;;
22248;SDS011;67538;52.180;5.646;2023-06-14T09:25:07;7.47;;;1.70;;
22248;SDS011;67538;52.180;5.646;2023-06-14T09:27:35;8.15;;;1.67;;
22248;SDS011;67538;52.180;5.646;2023-06-14T09:30:05;7.00;;;1.50;;
22248;SDS011;67538;52.180;5.646;2023-06-14T09:32:36;5.15;;;1.35;;
22248;SDS011;67538;52.180;5.646;2023-06-14T09:35:05;4.82;;;1.40;;
22248;SDS011;67538;52.180;5.646;2023-06-14T09:37:33;6.60;;;1.60;;
22248;SDS011;67538;52.180;5.646;2023-06-14T09:40:04;5.13;;;1.70;;
22248;SDS011;67538;52.180;5.646;2023-06-14T09:42:33;14.90;;;1.90;;
22248;SDS011;67538;52.180;5.646;2023-06-14T09:45:01;4.03;;;1.65;;
22248;SDS011;67538;52.180;5.646;2023-06-14T09:47:30;6.53;;;1.60;;
22248;SDS011;67538;52.180;5.646;2023-06-14T09:49:57;6.57;;;1.58;;
22248;SDS011;67538;52.180;5.646;2023-06-14T09:52:25;3.80;;;1.60;;
22248;SDS011;67538;52.180;5.646;2023-06-14T09:54:53;7.10;;;1.52;;
22248;SDS011;67538;52.180;5.646;2023-06-14T09:57:23;6.75;;;1.70;;
22248;SDS011;67538;52.180;5.646;2023-06-14T09:59:52;9.05;;;1.70;;
22248;SDS011;67538;52.180;5.646;2023-06-14T10:02:25;12.27;;;1.83;;
22248;SDS011;67538;52.180;5.646;2023-06-14T10:04:55;4.90;;;1.58;;
22248;SDS011;67538;52.180;5.646;2023-06-14T10:07:26;11.73;;;1.98;;
22248;SDS011;67538;52.180;5.646;2023-06-14T10:09:56;4.85;;;1.67;;
22248;SDS011;67538;52.180;5.646;2023-06-14T10:12:26;7.03;;;1.50;;
22248;SDS011;67538;52.180;5.646;2023-06-14T10:14:53;10.75;;;1.42;;
22248;SDS011;67538;52.180;5.646;2023-06-14T10:17:24;10.50;;;1.70;;
22248;SDS011;67538;52.180;5.646;2023-06-14T10:20:03;6.65;;;1.70;;
22248;SDS011;67538;52.180;5.646;2023-06-14T10:22:49;9.38;;;1.85;;
22248;SDS011;67538;52.180;5.646;2023-06-14T10:25:28;6.30;;;1.67;;
22248;SDS011;67538;52.180;5.646;2023-06-14T10:31:02;4.50;;;1.38;;
22248;SDS011;67538;52.180;5.646;2023-06-14T10:33:30;5.00;;;1.40;;
22248;SDS011;67538;52.180;5.646;2023-06-14T10:36:07;3.53;;;1.40;;
22248;SDS011;67538;52.180;5.646;2023-06-14T10:38:35;4.45;;;1.38;;
22248;SDS011;67538;52.180;5.646;2023-06-14T10:41:03;9.57;;;1.48;;
22248;SDS011;67538;52.180;5.646;2023-06-14T10:43:32;14.77;;;2.00;;
22248;SDS011;67538;52.180;5.646;2023-06-14T10:46:15;3.13;;;1.40;;
22248;SDS011;67538;52.180;5.646;2023-06-14T10:48:43;137.80;;;7.38;;
22248;SDS011;67538;52.180;5.646;2023-06-14T10:51:17;11.65;;;1.58;;
22248;SDS011;67538;52.180;5.646;2023-06-14T10:53:46;20.88;;;1.90;;
22248;SDS011;67538;52.180;5.646;2023-06-14T10:56:24;8.98;;;1.60;;
22248;SDS011;67538;52.180;5.646;2023-06-14T10:58:55;5.25;;;1.80;;
22248;SDS011;67538;52.180;5.646;2023-06-14T11:01:32;6.75;;;1.50;;
22248;SDS011;67538;52.180;5.646;2023-06-14T11:04:09;4.10;;;1.52;;
22248;SDS011;67538;52.180;5.646;2023-06-14T11:06:46;5.43;;;1.52;;
22248;SDS011;67538;52.180;5.646;2023-06-14T11:09:20;8.60;;;1.60;;
22248;SDS011;67538;52.180;5.646;2023-06-14T11:12:06;3.25;;;1.55;;
22248;SDS011;67538;52.180;5.646;2023-06-14T11:14:38;12.30;;;1.65;;
22248;SDS011;67538;52.180;5.646;2023-06-14T11:17:05;5.43;;;1.50;;
22248;SDS011;67538;52.180;5.646;2023-06-14T11:19:33;20.55;;;2.05;;
22248;SDS011;67538;52.180;5.646;2023-06-14T11:22:00;3.95;;;1.40;;
22248;SDS011;67538;52.180;5.646;2023-06-14T11:24:27;5.57;;;1.40;;
22248;SDS011;67538;52.180;5.646;2023-06-14T11:26:54;9.03;;;2.00;;
22248;SDS011;67538;52.180;5.646;2023-06-14T11:29:22;9.73;;;1.98;;
22248;SDS011;67538;52.180;5.646;2023-06-14T11:31:51;8.10;;;1.40;;
22248;SDS011;67538;52.180;5.646;2023-06-14T11:34:18;6.93;;;1.52;;
22248;SDS011;67538;52.180;5.646;2023-06-14T11:36:45;7.75;;;1.60;;
22248;SDS011;67538;52.180;5.646;2023-06-14T11:39:13;6.70;;;1.77;;
22248;SDS011;67538;52.180;5.646;2023-06-14T11:41:41;7.63;;;1.73;;
22248;SDS011;67538;52.180;5.646;2023-06-14T11:44:09;5.80;;;1.40;;
22248;SDS011;67538;52.180;5.646;2023-06-14T11:46:37;6.82;;;1.50;;
22248;SDS011;67538;52.180;5.646;2023-06-14T11:49:06;15.07;;;1.98;;
22248;SDS011;67538;52.180;5.646;2023-06-14T11:51:34;3.53;;;1.50;;
22248;SDS011;67538;52.180;5.646;2023-06-14T11:54:02;7.20;;;2.05;;
22248;SDS011;67538;52.180;5.646;2023-06-14T11:56:31;4.43;;;1.50;;
22248;SDS011;67538;52.180;5.646;2023-06-14T11:58:58;20.05;;;2.20;;
22248;SDS011;67538;52.180;5.646;2023-06-14T12:01:26;9.10;;;1.80;;
22248;SDS011;67538;52.180;5.646;2023-06-14T12:03:53;5.10;;;1.70;;
22248;SDS011;67538;52.180;5.646;2023-06-14T12:06:29;8.70;;;2.20;;
22248;SDS011;67538;52.180;5.646;2023-06-14T12:08:58;6.50;;;1.77;;
22248;SDS011;67538;52.180;5.646;2023-06-14T12:11:31;5.40;;;1.40;;
22248;SDS011;67538;52.180;5.646;2023-06-14T12:13:59;14.55;;;2.10;;
22248;SDS011;67538;52.180;5.646;2023-06-14T12:16:30;14.77;;;1.83;;
22248;SDS011;67538;52.180;5.646;2023-06-14T12:19:00;4.57;;;1.70;;
22248;SDS011;67538;52.180;5.646;2023-06-14T12:21:36;3.63;;;1.60;;
22248;SDS011;67538;52.180;5.646;2023-06-14T12:24:05;4.33;;;1.70;;
22248;SDS011;67538;52.180;5.646;2023-06-14T12:26:33;7.63;;;1.70;;
22248;SDS011;67538;52.180;5.646;2023-06-14T12:29:04;8.25;;;1.55;;
22248;SDS011;67538;52.180;5.646;2023-06-14T12:31:32;6.85;;;1.60;;
22248;SDS011;67538;52.180;5.646;2023-06-14T12:33:59;2.97;;;1.50;;
22248;SDS011;67538;52.180;5.646;2023-06-14T12:36:26;5.63;;;1.60;;
22248;SDS011;67538;52.180;5.646;2023-06-14T12:38:55;4.90;;;1.45;;
22248;SDS011;67538;52.180;5.646;2023-06-14T12:41:22;5.25;;;1.50;;
22248;SDS011;67538;52.180;5.646;2023-06-14T12:43:49;6.87;;;1.77;;
22248;SDS011;67538;52.180;5.646;2023-06-14T12:46:16;4.23;;;1.50;;
22248;SDS011;67538;52.180;5.646;2023-06-14T12:48:44;5.10;;;1.67;;
22248;SDS011;67538;52.180;5.646;2023-06-14T12:51:11;5.05;;;1.65;;
22248;SDS011;67538;52.180;5.646;2023-06-14T12:53:38;5.77;;;1.40;;
22248;SDS011;67538;52.180;5.646;2023-06-14T12:56:06;4.78;;;1.50;;
22248;SDS011;67538;52.180;5.646;2023-06-14T12:58:33;4.28;;;1.63;;
22248;SDS011;67538;52.180;5.646;2023-06-14T13:01:00;6.55;;;1.48;;
22248;SDS011;67538;52.180;5.646;2023-06-14T13:03:28;5.40;;;1.40;;
22248;SDS011;67538;52.180;5.646;2023-06-14T13:05:55;8.00;;;1.53;;
22248;SDS011;67538;52.180;5.646;2023-06-14T13:08:22;8.40;;;1.50;;
22248;SDS011;67538;52.180;5.646;2023-06-14T13:10:49;6.10;;;1.50;;
22248;SDS011;67538;52.180;5.646;2023-06-14T13:13:17;5.65;;;1.58;;
22248;SDS011;67538;52.180;5.646;2023-06-14T13:15:44;4.93;;;1.50;;
22248;SDS011;67538;52.180;5.646;2023-06-14T13:18:12;4.80;;;1.48;;
22248;SDS011;67538;52.180;5.646;2023-06-14T13:20:39;4.95;;;1.75;;
22248;SDS011;67538;52.180;5.646;2023-06-14T13:23:06;7.72;;;1.58;;
22248;SDS011;67538;52.180;5.646;2023-06-14T13:25:33;13.13;;;1.80;;
22248;SDS011;67538;52.180;5.646;2023-06-14T13:28:00;3.83;;;1.50;;
22248;SDS011;67538;52.180;5.646;2023-06-14T13:30:29;9.85;;;1.60;;
22248;SDS011;67538;52.180;5.646;2023-06-14T13:32:56;6.53;;;1.60;;
22248;SDS011;67538;52.180;5.646;2023-06-14T13:35:24;7.18;;;1.40;;
22248;SDS011;67538;52.180;5.646;2023-06-14T13:37:52;10.30;;;1.70;;
22248;SDS011;67538;52.180;5.646;2023-06-14T13:40:19;10.25;;;1.40;;
22248;SDS011;67538;52.180;5.646;2023-06-14T13:42:46;18.38;;;2.05;;
22248;SDS011;67538;52.180;5.646;2023-06-14T13:45:13;3.90;;;1.42;;
22248;SDS011;67538;52.180;5.646;2023-06-14T13:47:43;4.72;;;1.40;;
22248;SDS011;67538;52.180;5.646;2023-06-14T13:50:13;5.60;;;1.52;;
22248;SDS011;67538;52.180;5.646;2023-06-14T13:52:41;27.43;;;2.30;;
22248;SDS011;67538;52.180;5.646;2023-06-14T13:55:08;9.13;;;1.57;;
22248;SDS011;67538;52.180;5.646;2023-06-14T13:57:35;5.88;;;1.48;;
22248;SDS011;67538;52.180;5.646;2023-06-14T14:00:03;6.57;;;1.40;;
22248;SDS011;67538;52.180;5.646;2023-06-14T14:02:30;9.82;;;1.40;;
22248;SDS011;67538;52.180;5.646;2023-06-14T14:04:59;4.53;;;1.47;;
22248;SDS011;67538;52.180;5.646;2023-06-14T14:07:26;5.32;;;1.23;;
22248;SDS011;67538;52.180;5.646;2023-06-14T14:09:54;3.10;;;1.33;;
22248;SDS011;67538;52.180;5.646;2023-06-14T14:12:22;4.57;;;1.42;;
22248;SDS011;67538;52.180;5.646;2023-06-14T14:14:50;3.92;;;1.30;;
22248;SDS011;67538;52.180;5.646;2023-06-14T14:17:17;7.63;;;1.23;;
22248;SDS011;67538;52.180;5.646;2023-06-14T14:19:44;2.33;;;1.10;;
22248;SDS011;67538;52.180;5.646;2023-06-14T14:22:13;6.80;;;1.13;;
22248;SDS011;67538;52.180;5.646;2023-06-14T14:24:40;13.52;;;1.80;;
22248;SDS011;67538;52.180;5.646;2023-06-14T14:27:07;11.25;;;1.70;;
22248;SDS011;67538;52.180;5.646;2023-06-14T14:29:34;2.08;;;1.15;;
22248;SDS011;67538;52.180;5.646;2023-06-14T14:32:01;6.18;;;1.27;;
22248;SDS011;67538;52.180;5.646;2023-06-14T14:34:28;6.07;;;1.23;;
22248;SDS011;67538;52.180;5.646;2023-06-14T14:36:55;8.05;;;1.30;;
22248;SDS011;67538;52.180;5.646;2023-06-14T14:39:23;17.60;;;1.50;;
22248;SDS011;67538;52.180;5.646;2023-06-14T14:41:51;3.08;;;1.20;;
22248;SDS011;67538;52.180;5.646;2023-06-14T14:44:18;7.07;;;1.50;;
22248;SDS011;67538;52.180;5.646;2023-06-14T14:46:45;17.08;;;1.95;;
22248;SDS011;67538;52.180;5.646;2023-06-14T14:49:12;9.80;;;1.60;;
22248;SDS011;67538;52.180;5.646;2023-06-14T14:51:39;18.23;;;1.57;;
22248;SDS011;67538;52.180;5.646;2023-06-14T14:54:06;5.20;;;1.38;;